sensor_id;sensor_type;location;lat;lon;timestamp;P1;durP1;ratioP1;P2;durP2;ratioP2
1545;SDS011;766;51.502;9.752;2022-11-30T00:01:16;7.78;;;4.85;;
1545;SDS011;766;51.502;9.752;2022-11-30T00:03:47;11.18;;;5.80;;
1545;SDS011;766;51.502;9.752;2022-11-30T00:06:17;9.15;;;4.20;;
1545;SDS011;766;51.502;9.752;2022-11-30T00:08:51;8.90;;;3.75;;
1545;SDS011;766;51.502;9.752;2022-11-30T00:11:21;9.82;;;3.58;;
1545;SDS011;766;51.502;9.752;2022-11-30T00:13:50;4.57;;;3.47;;
1545;SDS011;766;51.502;9.752;2022-11-30T00:16:19;4.32;;;2.97;;
1545;SDS011;766;51.502;9.752;2022-11-30T00:18:48;5.53;;;4.03;;
1545;SDS011;766;51.502;9.752;2022-11-30T00:21:18;5.45;;;3.47;;
1545;SDS011;766;51.502;9.752;2022-11-30T00:23:47;4.22;;;3.15;;
1545;SDS011;766;51.502;9.752;2022-11-30T00:26:18;6.25;;;3.45;;
1545;SDS011;766;51.502;9.752;2022-11-30T00:28:48;3.42;;;3.13;;
1545;SDS011;766;51.502;9.752;2022-11-30T00:31:16;5.75;;;3.38;;
1545;SDS011;766;51.502;9.752;2022-11-30T00:33:46;4.05;;;3.15;;
1545;SDS011;766;51.502;9.752;2022-11-30T00:36:15;5.70;;;2.92;;
1545;SDS011;766;51.502;9.752;2022-11-30T00:38:46;4.13;;;3.03;;
1545;SDS011;766;51.502;9.752;2022-11-30T00:41:16;3.78;;;3.35;;
1545;SDS011;766;51.502;9.752;2022-11-30T00:43:45;4.03;;;3.10;;
1545;SDS011;766;51.502;9.752;2022-11-30T00:46:14;6.63;;;3.33;;
1545;SDS011;766;51.502;9.752;2022-11-30T00:48:42;3.85;;;2.70;;
1545;SDS011;766;51.502;9.752;2022-11-30T00:51:12;7.30;;;3.00;;
1545;SDS011;766;51.502;9.752;2022-11-30T00:53:41;6.13;;;3.55;;
1545;SDS011;766;51.502;9.752;2022-11-30T00:56:12;7.15;;;3.45;;
1545;SDS011;766;51.502;9.752;2022-11-30T00:58:40;10.77;;;3.47;;
1545;SDS011;766;51.502;9.752;2022-11-30T01:01:09;4.97;;;3.50;;
1545;SDS011;766;51.502;9.752;2022-11-30T01:03:37;4.93;;;3.28;;
1545;SDS011;766;51.502;9.752;2022-11-30T01:06:06;3.92;;;2.90;;
1545;SDS011;766;51.502;9.752;2022-11-30T01:08:36;5.40;;;3.42;;
1545;SDS011;766;51.502;9.752;2022-11-30T01:11:05;4.80;;;3.00;;
1545;SDS011;766;51.502;9.752;2022-11-30T01:13:39;6.00;;;3.47;;
1545;SDS011;766;51.502;9.752;2022-11-30T01:16:08;4.07;;;2.85;;
1545;SDS011;766;51.502;9.752;2022-11-30T01:18:39;4.65;;;2.92;;
1545;SDS011;766;51.502;9.752;2022-11-30T01:21:09;5.70;;;2.65;;
1545;SDS011;766;51.502;9.752;2022-11-30T01:23:40;3.78;;;3.00;;
1545;SDS011;766;51.502;9.752;2022-11-30T01:26:09;5.22;;;2.92;;
1545;SDS011;766;51.502;9.752;2022-11-30T01:28:39;4.78;;;2.78;;
1545;SDS011;766;51.502;9.752;2022-11-30T01:31:10;12.05;;;3.42;;
1545;SDS011;766;51.502;9.752;2022-11-30T01:33:40;7.70;;;3.15;;
1545;SDS011;766;51.502;9.752;2022-11-30T01:36:10;7.40;;;4.95;;
1545;SDS011;766;51.502;9.752;2022-11-30T01:38:41;9.48;;;4.35;;
1545;SDS011;766;51.502;9.752;2022-11-30T01:41:11;9.40;;;3.78;;
1545;SDS011;766;51.502;9.752;2022-11-30T01:43:43;5.50;;;3.22;;
1545;SDS011;766;51.502;9.752;2022-11-30T01:49:01;5.93;;;3.65;;
1545;SDS011;766;51.502;9.752;2022-11-30T01:51:34;3.60;;;2.80;;
1545;SDS011;766;51.502;9.752;2022-11-30T01:54:07;4.95;;;3.30;;
1545;SDS011;766;51.502;9.752;2022-11-30T01:56:37;6.07;;;3.30;;
1545;SDS011;766;51.502;9.752;2022-11-30T01:59:11;5.57;;;3.13;;
1545;SDS011;766;51.502;9.752;2022-11-30T02:01:41;7.22;;;3.25;;
1545;SDS011;766;51.502;9.752;2022-11-30T02:04:16;6.78;;;3.13;;
1545;SDS011;766;51.502;9.752;2022-11-30T02:06:48;6.10;;;3.72;;
1545;SDS011;766;51.502;9.752;2022-11-30T02:09:17;7.07;;;4.45;;
1545;SDS011;766;51.502;9.752;2022-11-30T02:11:47;6.72;;;3.63;;
1545;SDS011;766;51.502;9.752;2022-11-30T02:14:22;7.10;;;4.15;;
1545;SDS011;766;51.502;9.752;2022-11-30T02:17:00;5.43;;;3.53;;
1545;SDS011;766;51.502;9.752;2022-11-30T02:19:51;6.28;;;3.80;;
1545;SDS011;766;51.502;9.752;2022-11-30T02:22:47;6.25;;;4.15;;
1545;SDS011;766;51.502;9.752;2022-11-30T02:25:26;7.28;;;4.15;;
1545;SDS011;766;51.502;9.752;2022-11-30T02:28:11;7.20;;;4.03;;
1545;SDS011;766;51.502;9.752;2022-11-30T02:30:52;4.90;;;3.22;;
1545;SDS011;766;51.502;9.752;2022-11-30T02:33:24;8.93;;;3.88;;
1545;SDS011;766;51.502;9.752;2022-11-30T02:35:57;4.78;;;3.35;;
1545;SDS011;766;51.502;9.752;2022-11-30T02:38:27;5.35;;;3.90;;
1545;SDS011;766;51.502;9.752;2022-11-30T02:40:56;5.20;;;3.42;;
1545;SDS011;766;51.502;9.752;2022-11-30T02:43:25;6.60;;;3.47;;
1545;SDS011;766;51.502;9.752;2022-11-30T02:45:57;6.50;;;3.13;;
1545;SDS011;766;51.502;9.752;2022-11-30T02:48:36;5.10;;;3.50;;
1545;SDS011;766;51.502;9.752;2022-11-30T02:51:10;4.13;;;3.20;;
1545;SDS011;766;51.502;9.752;2022-11-30T02:53:44;4.85;;;2.95;;
1545;SDS011;766;51.502;9.752;2022-11-30T02:56:12;6.72;;;3.03;;
1545;SDS011;766;51.502;9.752;2022-11-30T02:58:40;5.25;;;3.08;;
1545;SDS011;766;51.502;9.752;2022-11-30T03:01:10;4.80;;;3.03;;
1545;SDS011;766;51.502;9.752;2022-11-30T03:03:38;4.80;;;3.22;;
1545;SDS011;766;51.502;9.752;2022-11-30T03:06:07;5.57;;;4.03;;
1545;SDS011;766;51.502;9.752;2022-11-30T03:08:35;5.78;;;3.13;;
1545;SDS011;766;51.502;9.752;2022-11-30T03:11:04;6.63;;;3.30;;
1545;SDS011;766;51.502;9.752;2022-11-30T03:13:32;3.95;;;2.78;;
1545;SDS011;766;51.502;9.752;2022-11-30T03:16:04;5.00;;;3.42;;
1545;SDS011;766;51.502;9.752;2022-11-30T03:18:35;4.20;;;2.90;;
1545;SDS011;766;51.502;9.752;2022-11-30T03:21:04;3.75;;;2.88;;
1545;SDS011;766;51.502;9.752;2022-11-30T03:23:33;3.45;;;2.42;;
1545;SDS011;766;51.502;9.752;2022-11-30T03:26:02;2.90;;;2.40;;
1545;SDS011;766;51.502;9.752;2022-11-30T03:28:31;5.00;;;2.90;;
1545;SDS011;766;51.502;9.752;2022-11-30T03:31:00;3.55;;;2.90;;
1545;SDS011;766;51.502;9.752;2022-11-30T03:33:29;4.55;;;3.20;;
1545;SDS011;766;51.502;9.752;2022-11-30T03:35:59;3.78;;;2.80;;
1545;SDS011;766;51.502;9.752;2022-11-30T03:38:28;4.18;;;3.20;;
1545;SDS011;766;51.502;9.752;2022-11-30T03:40:58;4.40;;;3.30;;
1545;SDS011;766;51.502;9.752;2022-11-30T03:43:27;5.57;;;3.90;;
1545;SDS011;766;51.502;9.752;2022-11-30T03:45:56;5.82;;;3.88;;
1545;SDS011;766;51.502;9.752;2022-11-30T03:48:25;7.53;;;4.07;;
1545;SDS011;766;51.502;9.752;2022-11-30T03:50:53;4.53;;;3.50;;
1545;SDS011;766;51.502;9.752;2022-11-30T03:53:23;7.93;;;3.75;;
1545;SDS011;766;51.502;9.752;2022-11-30T03:55:52;5.80;;;3.65;;
1545;SDS011;766;51.502;9.752;2022-11-30T03:58:22;5.57;;;4.15;;
1545;SDS011;766;51.502;9.752;2022-11-30T04:00:56;6.85;;;3.75;;
1545;SDS011;766;51.502;9.752;2022-11-30T04:03:26;5.88;;;3.50;;
1545;SDS011;766;51.502;9.752;2022-11-30T04:05:54;5.47;;;3.53;;
1545;SDS011;766;51.502;9.752;2022-11-30T04:08:25;5.53;;;3.38;;
1545;SDS011;766;51.502;9.752;2022-11-30T04:10:55;8.35;;;4.60;;
1545;SDS011;766;51.502;9.752;2022-11-30T04:13:25;9.77;;;5.20;;
1545;SDS011;766;51.502;9.752;2022-11-30T04:15:54;7.80;;;4.80;;
1545;SDS011;766;51.502;9.752;2022-11-30T04:18:23;9.10;;;5.45;;
1545;SDS011;766;51.502;9.752;2022-11-30T04:20:53;9.18;;;5.22;;
1545;SDS011;766;51.502;9.752;2022-11-30T04:23:22;10.30;;;5.20;;
1545;SDS011;766;51.502;9.752;2022-11-30T04:25:53;10.27;;;5.13;;
1545;SDS011;766;51.502;9.752;2022-11-30T04:28:21;8.75;;;4.68;;
1545;SDS011;766;51.502;9.752;2022-11-30T04:30:49;10.07;;;5.20;;
1545;SDS011;766;51.502;9.752;2022-11-30T04:33:18;9.93;;;4.95;;
1545;SDS011;766;51.502;9.752;2022-11-30T04:35:47;9.48;;;5.18;;
1545;SDS011;766;51.502;9.752;2022-11-30T04:38:20;8.88;;;4.88;;
1545;SDS011;766;51.502;9.752;2022-11-30T04:40:49;8.80;;;4.80;;
1545;SDS011;766;51.502;9.752;2022-11-30T04:43:19;11.35;;;5.07;;
1545;SDS011;766;51.502;9.752;2022-11-30T04:45:47;10.32;;;4.90;;
1545;SDS011;766;51.502;9.752;2022-11-30T04:48:16;9.02;;;4.85;;
1545;SDS011;766;51.502;9.752;2022-11-30T04:50:45;8.20;;;4.80;;
1545;SDS011;766;51.502;9.752;2022-11-30T04:53:13;10.50;;;4.95;;
1545;SDS011;766;51.502;9.752;2022-11-30T04:55:42;7.63;;;4.20;;
1545;SDS011;766;51.502;9.752;2022-11-30T04:58:10;9.98;;;4.70;;
1545;SDS011;766;51.502;9.752;2022-11-30T05:00:40;7.93;;;4.20;;
1545;SDS011;766;51.502;9.752;2022-11-30T05:03:09;10.50;;;4.88;;
1545;SDS011;766;51.502;9.752;2022-11-30T05:05:37;8.88;;;4.85;;
1545;SDS011;766;51.502;9.752;2022-11-30T05:08:07;7.78;;;4.85;;
1545;SDS011;766;51.502;9.752;2022-11-30T05:10:36;5.88;;;4.30;;
1545;SDS011;766;51.502;9.752;2022-11-30T05:13:04;5.72;;;3.80;;
1545;SDS011;766;51.502;9.752;2022-11-30T05:15:33;6.38;;;4.10;;
1545;SDS011;766;51.502;9.752;2022-11-30T05:18:03;8.05;;;3.90;;
1545;SDS011;766;51.502;9.752;2022-11-30T05:20:33;5.53;;;3.55;;
1545;SDS011;766;51.502;9.752;2022-11-30T05:23:04;4.70;;;3.58;;
1545;SDS011;766;51.502;9.752;2022-11-30T05:25:32;19.13;;;3.75;;
1545;SDS011;766;51.502;9.752;2022-11-30T05:28:01;4.15;;;3.28;;
1545;SDS011;766;51.502;9.752;2022-11-30T05:30:29;4.85;;;3.20;;
1545;SDS011;766;51.502;9.752;2022-11-30T05:32:57;4.60;;;3.53;;
1545;SDS011;766;51.502;9.752;2022-11-30T05:35:27;4.63;;;3.75;;
1545;SDS011;766;51.502;9.752;2022-11-30T05:37:56;3.85;;;3.33;;
1545;SDS011;766;51.502;9.752;2022-11-30T05:40:25;4.25;;;3.38;;
1545;SDS011;766;51.502;9.752;2022-11-30T05:42:55;4.18;;;3.13;;
1545;SDS011;766;51.502;9.752;2022-11-30T05:45:24;4.50;;;2.65;;
1545;SDS011;766;51.502;9.752;2022-11-30T05:47:54;4.35;;;3.17;;
1545;SDS011;766;51.502;9.752;2022-11-30T05:50:22;5.78;;;3.67;;
1545;SDS011;766;51.502;9.752;2022-11-30T05:52:52;4.35;;;3.50;;
1545;SDS011;766;51.502;9.752;2022-11-30T05:55:22;3.20;;;2.70;;
1545;SDS011;766;51.502;9.752;2022-11-30T05:57:51;4.68;;;3.28;;
1545;SDS011;766;51.502;9.752;2022-11-30T06:00:19;3.10;;;2.47;;
1545;SDS011;766;51.502;9.752;2022-11-30T06:02:53;3.17;;;2.75;;
1545;SDS011;766;51.502;9.752;2022-11-30T06:05:22;4.93;;;3.30;;
1545;SDS011;766;51.502;9.752;2022-11-30T06:07:52;3.63;;;2.72;;
1545;SDS011;766;51.502;9.752;2022-11-30T06:10:23;3.40;;;2.63;;
1545;SDS011;766;51.502;9.752;2022-11-30T06:12:52;2.92;;;2.47;;
1545;SDS011;766;51.502;9.752;2022-11-30T06:15:21;4.13;;;3.03;;
1545;SDS011;766;51.502;9.752;2022-11-30T06:17:49;3.10;;;2.70;;
1545;SDS011;766;51.502;9.752;2022-11-30T06:20:18;4.45;;;3.17;;
1545;SDS011;766;51.502;9.752;2022-11-30T06:22:47;3.83;;;2.55;;
1545;SDS011;766;51.502;9.752;2022-11-30T06:25:16;3.70;;;2.80;;
1545;SDS011;766;51.502;9.752;2022-11-30T06:27:45;3.60;;;3.00;;
1545;SDS011;766;51.502;9.752;2022-11-30T06:30:15;4.07;;;2.83;;
1545;SDS011;766;51.502;9.752;2022-11-30T06:32:44;3.38;;;2.83;;
1545;SDS011;766;51.502;9.752;2022-11-30T06:35:12;3.58;;;2.80;;
1545;SDS011;766;51.502;9.752;2022-11-30T06:37:41;3.35;;;2.40;;
1545;SDS011;766;51.502;9.752;2022-11-30T06:40:11;4.32;;;2.85;;
1545;SDS011;766;51.502;9.752;2022-11-30T06:42:41;3.00;;;2.70;;
1545;SDS011;766;51.502;9.752;2022-11-30T06:45:09;3.70;;;2.63;;
1545;SDS011;766;51.502;9.752;2022-11-30T06:47:38;3.42;;;2.72;;
1545;SDS011;766;51.502;9.752;2022-11-30T06:50:07;4.55;;;3.17;;
1545;SDS011;766;51.502;9.752;2022-11-30T06:52:35;3.83;;;2.72;;
1545;SDS011;766;51.502;9.752;2022-11-30T06:55:05;6.82;;;2.83;;
1545;SDS011;766;51.502;9.752;2022-11-30T06:57:33;3.25;;;2.80;;
1545;SDS011;766;51.502;9.752;2022-11-30T07:00:04;4.43;;;2.95;;
1545;SDS011;766;51.502;9.752;2022-11-30T07:02:37;3.05;;;2.67;;
1545;SDS011;766;51.502;9.752;2022-11-30T07:05:05;3.42;;;2.72;;
1545;SDS011;766;51.502;9.752;2022-11-30T07:07:34;4.03;;;2.65;;
1545;SDS011;766;51.502;9.752;2022-11-30T07:10:06;4.22;;;2.70;;
1545;SDS011;766;51.502;9.752;2022-11-30T07:12:36;3.08;;;2.70;;
1545;SDS011;766;51.502;9.752;2022-11-30T07:15:07;4.90;;;2.90;;
1545;SDS011;766;51.502;9.752;2022-11-30T07:17:36;3.45;;;2.70;;
1545;SDS011;766;51.502;9.752;2022-11-30T07:20:05;6.00;;;3.03;;
1545;SDS011;766;51.502;9.752;2022-11-30T07:22:34;4.75;;;3.17;;
1545;SDS011;766;51.502;9.752;2022-11-30T07:25:03;6.30;;;4.03;;
1545;SDS011;766;51.502;9.752;2022-11-30T07:27:49;8.25;;;5.22;;
1545;SDS011;766;51.502;9.752;2022-11-30T07:30:19;6.00;;;3.97;;
1545;SDS011;766;51.502;9.752;2022-11-30T07:32:48;6.47;;;4.20;;
1545;SDS011;766;51.502;9.752;2022-11-30T07:35:16;6.50;;;4.10;;
1545;SDS011;766;51.502;9.752;2022-11-30T07:37:45;7.53;;;4.22;;
1545;SDS011;766;51.502;9.752;2022-11-30T07:40:13;5.22;;;3.85;;
1545;SDS011;766;51.502;9.752;2022-11-30T07:42:41;6.65;;;4.20;;
1545;SDS011;766;51.502;9.752;2022-11-30T07:45:10;5.93;;;3.83;;
1545;SDS011;766;51.502;9.752;2022-11-30T07:47:39;5.75;;;3.47;;
1545;SDS011;766;51.502;9.752;2022-11-30T07:50:08;5.13;;;3.78;;
1545;SDS011;766;51.502;9.752;2022-11-30T07:52:37;7.72;;;4.10;;
1545;SDS011;766;51.502;9.752;2022-11-30T07:55:06;4.40;;;3.13;;
1545;SDS011;766;51.502;9.752;2022-11-30T07:57:35;4.45;;;3.05;;
1545;SDS011;766;51.502;9.752;2022-11-30T08:00:04;4.03;;;3.30;;
1545;SDS011;766;51.502;9.752;2022-11-30T08:02:34;6.53;;;3.97;;
1545;SDS011;766;51.502;9.752;2022-11-30T08:05:04;5.38;;;3.78;;
1545;SDS011;766;51.502;9.752;2022-11-30T08:07:33;8.32;;;3.42;;
1545;SDS011;766;51.502;9.752;2022-11-30T08:10:02;5.43;;;3.45;;
1545;SDS011;766;51.502;9.752;2022-11-30T08:12:31;5.15;;;3.20;;
1545;SDS011;766;51.502;9.752;2022-11-30T08:15:00;5.38;;;3.70;;
1545;SDS011;766;51.502;9.752;2022-11-30T08:17:46;4.85;;;3.50;;
1545;SDS011;766;51.502;9.752;2022-11-30T08:20:21;5.82;;;3.78;;
1545;SDS011;766;51.502;9.752;2022-11-30T08:22:50;4.78;;;3.75;;
1545;SDS011;766;51.502;9.752;2022-11-30T08:25:18;5.38;;;4.00;;
1545;SDS011;766;51.502;9.752;2022-11-30T08:27:46;7.45;;;4.57;;
1545;SDS011;766;51.502;9.752;2022-11-30T08:30:16;14.32;;;3.63;;
1545;SDS011;766;51.502;9.752;2022-11-30T08:32:44;3.60;;;3.10;;
1545;SDS011;766;51.502;9.752;2022-11-30T08:35:13;3.58;;;3.08;;
1545;SDS011;766;51.502;9.752;2022-11-30T08:37:43;5.85;;;3.33;;
1545;SDS011;766;51.502;9.752;2022-11-30T08:40:13;4.40;;;3.10;;
1545;SDS011;766;51.502;9.752;2022-11-30T08:42:41;4.22;;;3.50;;
1545;SDS011;766;51.502;9.752;2022-11-30T08:45:10;3.50;;;3.13;;
1545;SDS011;766;51.502;9.752;2022-11-30T08:47:42;6.10;;;4.15;;
1545;SDS011;766;51.502;9.752;2022-11-30T08:50:10;4.72;;;3.90;;
1545;SDS011;766;51.502;9.752;2022-11-30T08:52:39;4.15;;;3.50;;
1545;SDS011;766;51.502;9.752;2022-11-30T08:55:09;3.08;;;2.78;;
1545;SDS011;766;51.502;9.752;2022-11-30T08:57:37;5.47;;;3.13;;
1545;SDS011;766;51.502;9.752;2022-11-30T09:00:07;12.35;;;3.80;;
1545;SDS011;766;51.502;9.752;2022-11-30T09:02:36;3.80;;;3.13;;
1545;SDS011;766;51.502;9.752;2022-11-30T09:05:06;3.97;;;2.85;;
1545;SDS011;766;51.502;9.752;2022-11-30T09:07:34;6.63;;;2.97;;
1545;SDS011;766;51.502;9.752;2022-11-30T09:10:02;6.30;;;3.60;;
1545;SDS011;766;51.502;9.752;2022-11-30T09:12:34;4.30;;;3.58;;
1545;SDS011;766;51.502;9.752;2022-11-30T09:15:03;5.63;;;3.70;;
1545;SDS011;766;51.502;9.752;2022-11-30T09:17:33;4.55;;;3.78;;
1545;SDS011;766;51.502;9.752;2022-11-30T09:20:02;9.45;;;4.18;;
1545;SDS011;766;51.502;9.752;2022-11-30T09:22:31;5.13;;;3.28;;
1545;SDS011;766;51.502;9.752;2022-11-30T09:24:59;4.25;;;3.50;;
1545;SDS011;766;51.502;9.752;2022-11-30T09:27:30;4.75;;;3.10;;
1545;SDS011;766;51.502;9.752;2022-11-30T09:30:00;3.47;;;2.70;;
1545;SDS011;766;51.502;9.752;2022-11-30T09:32:28;5.30;;;3.33;;
1545;SDS011;766;51.502;9.752;2022-11-30T09:34:56;4.78;;;3.45;;
1545;SDS011;766;51.502;9.752;2022-11-30T09:37:25;5.18;;;3.30;;
1545;SDS011;766;51.502;9.752;2022-11-30T09:39:53;3.78;;;2.97;;
1545;SDS011;766;51.502;9.752;2022-11-30T09:42:27;6.13;;;3.40;;
1545;SDS011;766;51.502;9.752;2022-11-30T09:45:10;6.80;;;4.20;;
1545;SDS011;766;51.502;9.752;2022-11-30T09:47:56;6.60;;;4.15;;
1545;SDS011;766;51.502;9.752;2022-11-30T09:50:38;11.88;;;6.82;;
1545;SDS011;766;51.502;9.752;2022-11-30T09:53:10;14.80;;;8.13;;
1545;SDS011;766;51.502;9.752;2022-11-30T09:55:54;6.40;;;4.53;;
1545;SDS011;766;51.502;9.752;2022-11-30T09:58:28;6.28;;;4.28;;
1545;SDS011;766;51.502;9.752;2022-11-30T10:01:09;6.20;;;4.32;;
1545;SDS011;766;51.502;9.752;2022-11-30T10:03:44;9.95;;;5.05;;
1545;SDS011;766;51.502;9.752;2022-11-30T10:06:14;9.40;;;6.03;;
1545;SDS011;766;51.502;9.752;2022-11-30T10:08:53;7.75;;;5.47;;
1545;SDS011;766;51.502;9.752;2022-11-30T10:11:40;14.00;;;6.47;;
1545;SDS011;766;51.502;9.752;2022-11-30T10:14:24;14.05;;;6.40;;
1545;SDS011;766;51.502;9.752;2022-11-30T10:17:10;9.73;;;5.90;;
1545;SDS011;766;51.502;9.752;2022-11-30T10:19:55;9.15;;;5.45;;
1545;SDS011;766;51.502;9.752;2022-11-30T10:22:37;11.07;;;6.05;;
1545;SDS011;766;51.502;9.752;2022-11-30T10:25:20;10.48;;;6.00;;
1545;SDS011;766;51.502;9.752;2022-11-30T10:27:51;6.25;;;4.50;;
1545;SDS011;766;51.502;9.752;2022-11-30T10:30:21;8.38;;;5.43;;
1545;SDS011;766;51.502;9.752;2022-11-30T10:32:52;7.68;;;5.35;;
1545;SDS011;766;51.502;9.752;2022-11-30T10:35:27;8.55;;;5.32;;
1545;SDS011;766;51.502;9.752;2022-11-30T10:38:02;10.00;;;5.75;;
1545;SDS011;766;51.502;9.752;2022-11-30T10:40:43;11.73;;;6.03;;
1545;SDS011;766;51.502;9.752;2022-11-30T10:43:17;9.10;;;5.35;;
1545;SDS011;766;51.502;9.752;2022-11-30T10:45:52;17.48;;;6.53;;
1545;SDS011;766;51.502;9.752;2022-11-30T10:48:24;15.50;;;6.75;;
1545;SDS011;766;51.502;9.752;2022-11-30T10:50:59;37.20;;;7.25;;
1545;SDS011;766;51.502;9.752;2022-11-30T10:53:33;14.30;;;7.70;;
1545;SDS011;766;51.502;9.752;2022-11-30T10:56:05;12.13;;;6.95;;
1545;SDS011;766;51.502;9.752;2022-11-30T10:58:40;22.63;;;9.70;;
1545;SDS011;766;51.502;9.752;2022-11-30T11:01:27;21.63;;;10.43;;
1545;SDS011;766;51.502;9.752;2022-11-30T11:04:08;31.85;;;13.30;;
1545;SDS011;766;51.502;9.752;2022-11-30T11:06:43;18.38;;;10.13;;
1545;SDS011;766;51.502;9.752;2022-11-30T11:09:29;22.27;;;9.45;;
1545;SDS011;766;51.502;9.752;2022-11-30T11:12:02;17.13;;;8.60;;
1545;SDS011;766;51.502;9.752;2022-11-30T11:14:34;13.57;;;9.23;;
1545;SDS011;766;51.502;9.752;2022-11-30T11:17:04;21.95;;;11.60;;
1545;SDS011;766;51.502;9.752;2022-11-30T11:19:49;24.40;;;13.65;;
1545;SDS011;766;51.502;9.752;2022-11-30T11:22:18;19.35;;;10.85;;
1545;SDS011;766;51.502;9.752;2022-11-30T11:24:48;16.65;;;10.10;;
1545;SDS011;766;51.502;9.752;2022-11-30T11:27:23;17.55;;;9.55;;
1545;SDS011;766;51.502;9.752;2022-11-30T11:29:59;10.82;;;6.40;;
1545;SDS011;766;51.502;9.752;2022-11-30T11:32:29;9.88;;;6.60;;
1545;SDS011;766;51.502;9.752;2022-11-30T11:34:59;9.88;;;6.55;;
1545;SDS011;766;51.502;9.752;2022-11-30T11:37:28;8.65;;;5.47;;
1545;SDS011;766;51.502;9.752;2022-11-30T11:40:01;8.27;;;5.57;;
1545;SDS011;766;51.502;9.752;2022-11-30T11:42:33;8.65;;;6.13;;
1545;SDS011;766;51.502;9.752;2022-11-30T11:45:04;7.30;;;5.25;;
1545;SDS011;766;51.502;9.752;2022-11-30T11:47:42;9.48;;;5.82;;
1545;SDS011;766;51.502;9.752;2022-11-30T11:50:23;9.43;;;5.90;;
1545;SDS011;766;51.502;9.752;2022-11-30T11:53:18;8.43;;;5.70;;
1545;SDS011;766;51.502;9.752;2022-11-30T11:55:52;10.70;;;6.00;;
1545;SDS011;766;51.502;9.752;2022-11-30T11:58:26;10.30;;;5.70;;
1545;SDS011;766;51.502;9.752;2022-11-30T12:01:03;13.95;;;7.78;;
1545;SDS011;766;51.502;9.752;2022-11-30T12:04:02;13.15;;;7.00;;
1545;SDS011;766;51.502;9.752;2022-11-30T12:06:41;11.98;;;6.25;;
1545;SDS011;766;51.502;9.752;2022-11-30T12:09:13;12.93;;;7.65;;
1545;SDS011;766;51.502;9.752;2022-11-30T12:11:45;13.65;;;7.95;;
1545;SDS011;766;51.502;9.752;2022-11-30T12:14:15;12.23;;;7.75;;
1545;SDS011;766;51.502;9.752;2022-11-30T12:16:50;13.35;;;8.13;;
1545;SDS011;766;51.502;9.752;2022-11-30T12:19:33;12.70;;;8.75;;
1545;SDS011;766;51.502;9.752;2022-11-30T12:22:14;14.68;;;8.93;;
1545;SDS011;766;51.502;9.752;2022-11-30T12:25:13;12.65;;;8.43;;
1545;SDS011;766;51.502;9.752;2022-11-30T12:27:49;16.38;;;10.18;;
1545;SDS011;766;51.502;9.752;2022-11-30T12:30:25;18.17;;;10.60;;
1545;SDS011;766;51.502;9.752;2022-11-30T12:33:07;20.77;;;10.93;;
1545;SDS011;766;51.502;9.752;2022-11-30T12:35:43;23.98;;;12.60;;
1545;SDS011;766;51.502;9.752;2022-11-30T12:38:22;18.20;;;10.55;;
1545;SDS011;766;51.502;9.752;2022-11-30T12:40:59;24.05;;;13.15;;
1545;SDS011;766;51.502;9.752;2022-11-30T12:43:38;16.73;;;9.95;;
1545;SDS011;766;51.502;9.752;2022-11-30T12:46:19;23.67;;;11.30;;
1545;SDS011;766;51.502;9.752;2022-11-30T12:48:59;24.02;;;12.07;;
1545;SDS011;766;51.502;9.752;2022-11-30T12:51:39;18.20;;;9.57;;
1545;SDS011;766;51.502;9.752;2022-11-30T12:54:16;16.42;;;9.88;;
1545;SDS011;766;51.502;9.752;2022-11-30T12:56:51;14.55;;;9.32;;
1545;SDS011;766;51.502;9.752;2022-11-30T12:59:25;19.60;;;10.05;;
1545;SDS011;766;51.502;9.752;2022-11-30T13:02:07;16.95;;;10.10;;
1545;SDS011;766;51.502;9.752;2022-11-30T13:04:49;17.73;;;9.88;;
1545;SDS011;766;51.502;9.752;2022-11-30T13:07:26;14.98;;;9.82;;
1545;SDS011;766;51.502;9.752;2022-11-30T13:09:59;14.25;;;9.05;;
1545;SDS011;766;51.502;9.752;2022-11-30T13:12:34;18.15;;;10.65;;
1545;SDS011;766;51.502;9.752;2022-11-30T13:15:08;18.35;;;10.30;;
1545;SDS011;766;51.502;9.752;2022-11-30T13:17:43;23.08;;;12.70;;
1545;SDS011;766;51.502;9.752;2022-11-30T13:20:15;16.25;;;10.15;;
1545;SDS011;766;51.502;9.752;2022-11-30T13:22:49;18.30;;;11.15;;
1545;SDS011;766;51.502;9.752;2022-11-30T13:25:28;24.35;;;13.48;;
1545;SDS011;766;51.502;9.752;2022-11-30T13:28:24;22.98;;;12.80;;
1545;SDS011;766;51.502;9.752;2022-11-30T13:31:02;20.50;;;12.80;;
1545;SDS011;766;51.502;9.752;2022-11-30T13:33:37;19.25;;;11.98;;
1545;SDS011;766;51.502;9.752;2022-11-30T13:36:22;26.02;;;12.43;;
1545;SDS011;766;51.502;9.752;2022-11-30T13:45:23;11.43;;;7.60;;
1545;SDS011;766;51.502;9.752;2022-11-30T13:47:58;11.45;;;6.50;;
1545;SDS011;766;51.502;9.752;2022-11-30T13:50:41;30.55;;;14.90;;
1545;SDS011;766;51.502;9.752;2022-11-30T13:53:18;24.75;;;10.90;;
1545;SDS011;766;51.502;9.752;2022-11-30T13:55:52;13.38;;;7.57;;
1545;SDS011;766;51.502;9.752;2022-11-30T13:58:27;16.83;;;7.65;;
1545;SDS011;766;51.502;9.752;2022-11-30T14:01:00;14.20;;;8.77;;
1545;SDS011;766;51.502;9.752;2022-11-30T14:06:50;11.30;;;7.30;;
1545;SDS011;766;51.502;9.752;2022-11-30T14:12:35;15.35;;;7.45;;
1545;SDS011;766;51.502;9.752;2022-11-30T14:21:18;21.40;;;8.57;;
1545;SDS011;766;51.502;9.752;2022-11-30T14:23:54;23.48;;;9.77;;
1545;SDS011;766;51.502;9.752;2022-11-30T14:26:28;14.98;;;8.93;;
1545;SDS011;766;51.502;9.752;2022-11-30T14:29:03;15.85;;;8.55;;
1545;SDS011;766;51.502;9.752;2022-11-30T14:31:39;20.73;;;9.82;;
1545;SDS011;766;51.502;9.752;2022-11-30T14:34:16;12.80;;;8.68;;
1545;SDS011;766;51.502;9.752;2022-11-30T14:36:50;21.50;;;9.25;;
1545;SDS011;766;51.502;9.752;2022-11-30T14:39:22;15.27;;;9.95;;
1545;SDS011;766;51.502;9.752;2022-11-30T14:41:52;23.65;;;10.65;;
1545;SDS011;766;51.502;9.752;2022-11-30T14:44:21;19.48;;;10.70;;
1545;SDS011;766;51.502;9.752;2022-11-30T14:46:51;15.63;;;10.95;;
1545;SDS011;766;51.502;9.752;2022-11-30T14:49:22;23.27;;;10.90;;
1545;SDS011;766;51.502;9.752;2022-11-30T14:51:56;19.75;;;11.93;;
1545;SDS011;766;51.502;9.752;2022-11-30T14:54:35;19.38;;;11.32;;
1545;SDS011;766;51.502;9.752;2022-11-30T14:57:13;17.38;;;10.85;;
1545;SDS011;766;51.502;9.752;2022-11-30T14:59:49;23.75;;;11.98;;
1545;SDS011;766;51.502;9.752;2022-11-30T15:02:21;20.52;;;13.10;;
1545;SDS011;766;51.502;9.752;2022-11-30T15:04:55;22.63;;;13.20;;
1545;SDS011;766;51.502;9.752;2022-11-30T15:07:25;21.00;;;12.63;;
1545;SDS011;766;51.502;9.752;2022-11-30T15:09:59;25.45;;;13.73;;
1545;SDS011;766;51.502;9.752;2022-11-30T15:12:31;23.40;;;13.20;;
1545;SDS011;766;51.502;9.752;2022-11-30T15:15:06;23.15;;;13.23;;
1545;SDS011;766;51.502;9.752;2022-11-30T15:17:48;20.65;;;12.02;;
1545;SDS011;766;51.502;9.752;2022-11-30T15:20:22;20.88;;;12.13;;
1545;SDS011;766;51.502;9.752;2022-11-30T15:22:57;23.67;;;13.77;;
1545;SDS011;766;51.502;9.752;2022-11-30T15:25:32;22.17;;;13.77;;
1545;SDS011;766;51.502;9.752;2022-11-30T15:28:04;25.40;;;14.10;;
1545;SDS011;766;51.502;9.752;2022-11-30T15:30:35;27.88;;;14.57;;
1545;SDS011;766;51.502;9.752;2022-11-30T15:33:13;29.50;;;14.02;;
1545;SDS011;766;51.502;9.752;2022-11-30T15:35:46;26.88;;;15.27;;
1545;SDS011;766;51.502;9.752;2022-11-30T15:38:37;23.00;;;13.77;;
1545;SDS011;766;51.502;9.752;2022-11-30T15:41:18;28.80;;;15.00;;
1545;SDS011;766;51.502;9.752;2022-11-30T15:43:49;22.27;;;14.10;;
1545;SDS011;766;51.502;9.752;2022-11-30T15:46:26;24.10;;;13.90;;
1545;SDS011;766;51.502;9.752;2022-11-30T15:49:11;27.13;;;14.45;;
1545;SDS011;766;51.502;9.752;2022-11-30T15:51:44;24.35;;;14.23;;
1545;SDS011;766;51.502;9.752;2022-11-30T15:57:09;25.33;;;14.23;;
1545;SDS011;766;51.502;9.752;2022-11-30T15:59:38;23.10;;;14.15;;
1545;SDS011;766;51.502;9.752;2022-11-30T16:02:21;23.75;;;13.98;;
1545;SDS011;766;51.502;9.752;2022-11-30T16:05:05;28.85;;;14.63;;
1545;SDS011;766;51.502;9.752;2022-11-30T16:07:52;28.42;;;14.82;;
1545;SDS011;766;51.502;9.752;2022-11-30T16:10:23;29.80;;;14.20;;
1545;SDS011;766;51.502;9.752;2022-11-30T16:12:55;31.85;;;15.02;;
1545;SDS011;766;51.502;9.752;2022-11-30T16:15:28;26.17;;;15.15;;
1545;SDS011;766;51.502;9.752;2022-11-30T16:18:08;28.65;;;15.20;;
1545;SDS011;766;51.502;9.752;2022-11-30T16:20:43;26.42;;;14.68;;